Shady Cove, Oregon
Current Conditions -  °F | °C
As of 11:53 PM on Sunday 23 Nov 2014 (Local Time) from KMFR Reporting Station
Overcast Overcast  
Wind Chill: 43°   Ceiling: 1100
Heat Index: 43°   Visibility: 10mi
Dew Point: 40°   Wind: 3mph
Humidity: 89%   Direction: 210°SSW
Pressure: 30.42"   Gusts: NA
Location:  42.61°N, 122.81°W
Report Text: KMFR 240753Z AUTO 21003KT 10SM OVC011 06/04 A3042 RMK AO2 SLP306 T00610044 400830039
Loading
Personal Weather Stations






























Interactive Weather Map New forecast layout! Learn more

10-Day Weather Forecast

Advertisements
Track Severe Weather on mobile